sensor_id;sensor_type;location;lat;lon;timestamp;P1;durP1;ratioP1;P2;durP2;ratioP2
69161;SDS011;56269;51.738;21.652;2022-12-07T00:01:32;24.05;;;10.02;;
69161;SDS011;56269;51.738;21.652;2022-12-07T00:04:01;24.37;;;10.03;;
69161;SDS011;56269;51.738;21.652;2022-12-07T00:06:32;27.42;;;9.77;;
69161;SDS011;56269;51.738;21.652;2022-12-07T00:09:07;25.15;;;10.27;;
69161;SDS011;56269;51.738;21.652;2022-12-07T00:11:36;24.60;;;9.98;;
69161;SDS011;56269;51.738;21.652;2022-12-07T00:14:05;25.17;;;9.50;;
69161;SDS011;56269;51.738;21.652;2022-12-07T00:16:33;26.60;;;10.53;;
69161;SDS011;56269;51.738;21.652;2022-12-07T00:19:00;22.40;;;9.35;;
69161;SDS011;56269;51.738;21.652;2022-12-07T00:21:28;18.65;;;7.93;;
69161;SDS011;56269;51.738;21.652;2022-12-07T00:23:56;21.33;;;9.27;;
69161;SDS011;56269;51.738;21.652;2022-12-07T00:26:23;20.15;;;8.40;;
69161;SDS011;56269;51.738;21.652;2022-12-07T00:31:42;16.52;;;6.57;;
69161;SDS011;56269;51.738;21.652;2022-12-07T00:34:11;25.63;;;9.98;;
69161;SDS011;56269;51.738;21.652;2022-12-07T00:36:42;19.10;;;7.93;;
69161;SDS011;56269;51.738;21.652;2022-12-07T00:39:08;23.10;;;9.52;;
69161;SDS011;56269;51.738;21.652;2022-12-07T00:41:34;24.67;;;8.83;;
69161;SDS011;56269;51.738;21.652;2022-12-07T00:44:00;21.77;;;7.43;;
69161;SDS011;56269;51.738;21.652;2022-12-07T00:46:28;20.75;;;9.07;;
69161;SDS011;56269;51.738;21.652;2022-12-07T00:48:54;18.08;;;7.85;;
69161;SDS011;56269;51.738;21.652;2022-12-07T00:51:22;18.75;;;7.78;;
69161;SDS011;56269;51.738;21.652;2022-12-07T00:53:50;22.57;;;9.40;;
69161;SDS011;56269;51.738;21.652;2022-12-07T00:56:26;21.33;;;7.95;;
69161;SDS011;56269;51.738;21.652;2022-12-07T00:58:57;19.35;;;7.90;;
69161;SDS011;56269;51.738;21.652;2022-12-07T01:01:29;25.17;;;9.63;;
69161;SDS011;56269;51.738;21.652;2022-12-07T01:03:57;24.02;;;9.73;;
69161;SDS011;56269;51.738;21.652;2022-12-07T01:06:26;24.73;;;9.70;;
69161;SDS011;56269;51.738;21.652;2022-12-07T01:08:53;23.88;;;9.60;;
69161;SDS011;56269;51.738;21.652;2022-12-07T01:11:21;21.17;;;9.05;;
69161;SDS011;56269;51.738;21.652;2022-12-07T01:13:50;17.58;;;7.35;;
69161;SDS011;56269;51.738;21.652;2022-12-07T01:16:18;20.77;;;8.77;;
69161;SDS011;56269;51.738;21.652;2022-12-07T01:18:45;23.87;;;9.37;;
69161;SDS011;56269;51.738;21.652;2022-12-07T01:21:15;26.60;;;10.15;;
69161;SDS011;56269;51.738;21.652;2022-12-07T01:23:48;23.77;;;9.70;;
69161;SDS011;56269;51.738;21.652;2022-12-07T01:26:17;19.48;;;7.63;;
69161;SDS011;56269;51.738;21.652;2022-12-07T01:28:45;20.15;;;8.68;;
69161;SDS011;56269;51.738;21.652;2022-12-07T01:31:13;21.30;;;8.30;;
69161;SDS011;56269;51.738;21.652;2022-12-07T01:33:41;16.25;;;6.63;;
69161;SDS011;56269;51.738;21.652;2022-12-07T01:36:13;21.75;;;8.80;;
69161;SDS011;56269;51.738;21.652;2022-12-07T01:38:43;18.45;;;7.80;;
69161;SDS011;56269;51.738;21.652;2022-12-07T01:41:10;20.92;;;9.35;;
69161;SDS011;56269;51.738;21.652;2022-12-07T01:43:36;21.77;;;9.17;;
69161;SDS011;56269;51.738;21.652;2022-12-07T01:46:23;13.52;;;5.88;;
69161;SDS011;56269;51.738;21.652;2022-12-07T01:48:49;20.55;;;9.32;;
69161;SDS011;56269;51.738;21.652;2022-12-07T01:51:15;14.02;;;6.55;;
69161;SDS011;56269;51.738;21.652;2022-12-07T01:53:42;16.15;;;6.35;;
69161;SDS011;56269;51.738;21.652;2022-12-07T01:56:12;15.70;;;6.60;;
69161;SDS011;56269;51.738;21.652;2022-12-07T01:58:43;18.90;;;8.15;;
69161;SDS011;56269;51.738;21.652;2022-12-07T02:01:11;12.60;;;6.25;;
69161;SDS011;56269;51.738;21.652;2022-12-07T02:03:41;18.60;;;7.82;;
69161;SDS011;56269;51.738;21.652;2022-12-07T02:06:09;18.63;;;8.25;;
69161;SDS011;56269;51.738;21.652;2022-12-07T02:08:38;14.57;;;5.77;;
69161;SDS011;56269;51.738;21.652;2022-12-07T02:11:05;12.38;;;5.50;;
69161;SDS011;56269;51.738;21.652;2022-12-07T02:13:33;13.07;;;6.00;;
69161;SDS011;56269;51.738;21.652;2022-12-07T02:18:38;11.80;;;4.88;;
69161;SDS011;56269;51.738;21.652;2022-12-07T02:26:44;11.48;;;5.50;;
69161;SDS011;56269;51.738;21.652;2022-12-07T02:29:18;10.70;;;4.80;;
69161;SDS011;56269;51.738;21.652;2022-12-07T02:34:26;10.57;;;4.50;;
69161;SDS011;56269;51.738;21.652;2022-12-07T02:37:00;9.60;;;4.55;;
69161;SDS011;56269;51.738;21.652;2022-12-07T02:40:12;9.25;;;4.85;;
69161;SDS011;56269;51.738;21.652;2022-12-07T02:42:23;8.65;;;3.53;;
69161;SDS011;56269;51.738;21.652;2022-12-07T02:44:57;13.82;;;5.72;;
69161;SDS011;56269;51.738;21.652;2022-12-07T02:47:26;12.57;;;5.80;;
69161;SDS011;56269;51.738;21.652;2022-12-07T02:49:55;10.20;;;4.35;;
69161;SDS011;56269;51.738;21.652;2022-12-07T02:52:21;9.85;;;4.50;;
69161;SDS011;56269;51.738;21.652;2022-12-07T02:54:47;10.10;;;4.55;;
69161;SDS011;56269;51.738;21.652;2022-12-07T02:57:34;11.80;;;5.43;;
69161;SDS011;56269;51.738;21.652;2022-12-07T03:00:29;14.43;;;5.23;;
69161;SDS011;56269;51.738;21.652;2022-12-07T03:03:06;11.45;;;5.25;;
69161;SDS011;56269;51.738;21.652;2022-12-07T03:11:41;12.60;;;5.35;;
69161;SDS011;56269;51.738;21.652;2022-12-07T03:14:19;8.60;;;4.07;;
69161;SDS011;56269;51.738;21.652;2022-12-07T03:16:55;10.07;;;4.57;;
69161;SDS011;56269;51.738;21.652;2022-12-07T03:19:26;13.73;;;5.80;;
69161;SDS011;56269;51.738;21.652;2022-12-07T03:21:55;13.73;;;5.35;;
69161;SDS011;56269;51.738;21.652;2022-12-07T03:25:00;14.82;;;6.40;;
69161;SDS011;56269;51.738;21.652;2022-12-07T03:27:21;9.80;;;4.07;;
69161;SDS011;56269;51.738;21.652;2022-12-07T03:30:06;9.53;;;4.27;;
69161;SDS011;56269;51.738;21.652;2022-12-07T03:32:43;12.90;;;5.53;;
69161;SDS011;56269;51.738;21.652;2022-12-07T03:35:18;10.38;;;4.00;;
69161;SDS011;56269;51.738;21.652;2022-12-07T03:37:53;14.77;;;5.88;;
69161;SDS011;56269;51.738;21.652;2022-12-07T03:43:11;10.93;;;5.40;;
69161;SDS011;56269;51.738;21.652;2022-12-07T03:48:08;14.43;;;6.07;;
69161;SDS011;56269;51.738;21.652;2022-12-07T03:51:19;13.35;;;5.05;;
69161;SDS011;56269;51.738;21.652;2022-12-07T03:53:27;12.75;;;5.40;;
69161;SDS011;56269;51.738;21.652;2022-12-07T03:55:59;8.77;;;3.83;;
69161;SDS011;56269;51.738;21.652;2022-12-07T03:58:27;11.85;;;4.93;;
69161;SDS011;56269;51.738;21.652;2022-12-07T04:00:54;11.68;;;4.50;;
69161;SDS011;56269;51.738;21.652;2022-12-07T04:03:21;21.70;;;5.55;;
69161;SDS011;56269;51.738;21.652;2022-12-07T04:05:47;9.95;;;4.97;;
69161;SDS011;56269;51.738;21.652;2022-12-07T04:08:14;11.17;;;4.97;;
69161;SDS011;56269;51.738;21.652;2022-12-07T04:10:40;12.35;;;5.18;;
69161;SDS011;56269;51.738;21.652;2022-12-07T04:13:09;15.88;;;6.60;;
69161;SDS011;56269;51.738;21.652;2022-12-07T04:15:35;15.38;;;5.82;;
69161;SDS011;56269;51.738;21.652;2022-12-07T04:18:02;8.40;;;4.07;;
69161;SDS011;56269;51.738;21.652;2022-12-07T04:20:28;11.17;;;5.10;;
69161;SDS011;56269;51.738;21.652;2022-12-07T04:22:54;18.55;;;7.65;;
69161;SDS011;56269;51.738;21.652;2022-12-07T04:25:21;12.57;;;5.55;;
69161;SDS011;56269;51.738;21.652;2022-12-07T04:27:47;10.60;;;5.15;;
69161;SDS011;56269;51.738;21.652;2022-12-07T04:30:13;17.10;;;6.55;;
69161;SDS011;56269;51.738;21.652;2022-12-07T04:32:39;14.77;;;5.83;;
69161;SDS011;56269;51.738;21.652;2022-12-07T04:35:06;16.92;;;6.70;;
69161;SDS011;56269;51.738;21.652;2022-12-07T04:37:33;14.15;;;6.05;;
69161;SDS011;56269;51.738;21.652;2022-12-07T04:39:59;16.70;;;6.57;;
69161;SDS011;56269;51.738;21.652;2022-12-07T04:42:25;15.43;;;6.30;;
69161;SDS011;56269;51.738;21.652;2022-12-07T04:44:52;11.90;;;4.73;;
69161;SDS011;56269;51.738;21.652;2022-12-07T04:47:18;12.27;;;5.80;;
69161;SDS011;56269;51.738;21.652;2022-12-07T04:49:44;12.07;;;5.22;;
69161;SDS011;56269;51.738;21.652;2022-12-07T04:52:10;16.40;;;6.55;;
69161;SDS011;56269;51.738;21.652;2022-12-07T04:54:37;10.20;;;4.82;;
69161;SDS011;56269;51.738;21.652;2022-12-07T04:57:03;14.63;;;5.80;;
69161;SDS011;56269;51.738;21.652;2022-12-07T04:59:29;15.98;;;5.80;;
69161;SDS011;56269;51.738;21.652;2022-12-07T05:01:55;11.98;;;4.55;;
69161;SDS011;56269;51.738;21.652;2022-12-07T05:04:22;13.07;;;5.45;;
69161;SDS011;56269;51.738;21.652;2022-12-07T05:06:48;16.02;;;6.97;;
69161;SDS011;56269;51.738;21.652;2022-12-07T05:09:14;10.80;;;5.10;;
69161;SDS011;56269;51.738;21.652;2022-12-07T05:11:40;14.30;;;6.03;;
69161;SDS011;56269;51.738;21.652;2022-12-07T05:16:38;15.68;;;6.88;;
69161;SDS011;56269;51.738;21.652;2022-12-07T05:19:06;22.65;;;7.97;;
69161;SDS011;56269;51.738;21.652;2022-12-07T05:21:33;19.00;;;6.90;;
69161;SDS011;56269;51.738;21.652;2022-12-07T05:24:00;13.05;;;6.28;;
69161;SDS011;56269;51.738;21.652;2022-12-07T05:26:26;19.42;;;6.50;;
69161;SDS011;56269;51.738;21.652;2022-12-07T05:28:53;14.15;;;5.95;;
69161;SDS011;56269;51.738;21.652;2022-12-07T05:31:20;13.80;;;5.88;;
69161;SDS011;56269;51.738;21.652;2022-12-07T05:33:48;22.50;;;8.30;;
69161;SDS011;56269;51.738;21.652;2022-12-07T05:36:14;10.02;;;4.18;;
69161;SDS011;56269;51.738;21.652;2022-12-07T05:38:41;11.00;;;5.03;;
69161;SDS011;56269;51.738;21.652;2022-12-07T05:41:07;11.98;;;5.07;;
69161;SDS011;56269;51.738;21.652;2022-12-07T05:43:55;9.35;;;4.30;;
69161;SDS011;56269;51.738;21.652;2022-12-07T05:46:21;12.63;;;5.87;;
69161;SDS011;56269;51.738;21.652;2022-12-07T05:48:48;15.65;;;5.95;;
69161;SDS011;56269;51.738;21.652;2022-12-07T05:51:14;15.13;;;6.65;;
69161;SDS011;56269;51.738;21.652;2022-12-07T05:53:40;11.52;;;4.95;;
69161;SDS011;56269;51.738;21.652;2022-12-07T05:56:06;13.48;;;6.60;;
69161;SDS011;56269;51.738;21.652;2022-12-07T05:58:32;12.07;;;5.43;;
69161;SDS011;56269;51.738;21.652;2022-12-07T06:01:17;16.30;;;6.43;;
69161;SDS011;56269;51.738;21.652;2022-12-07T06:03:43;12.40;;;5.18;;
69161;SDS011;56269;51.738;21.652;2022-12-07T06:06:10;21.10;;;8.25;;
69161;SDS011;56269;51.738;21.652;2022-12-07T06:08:37;12.70;;;6.05;;
69161;SDS011;56269;51.738;21.652;2022-12-07T06:11:03;11.87;;;5.63;;
69161;SDS011;56269;51.738;21.652;2022-12-07T06:13:48;15.75;;;6.15;;
69161;SDS011;56269;51.738;21.652;2022-12-07T06:16:14;13.50;;;5.65;;
69161;SDS011;56269;51.738;21.652;2022-12-07T06:18:41;9.55;;;4.47;;
69161;SDS011;56269;51.738;21.652;2022-12-07T06:21:07;15.15;;;6.85;;
69161;SDS011;56269;51.738;21.652;2022-12-07T06:23:33;16.20;;;7.03;;
69161;SDS011;56269;51.738;21.652;2022-12-07T06:25:59;13.35;;;4.28;;
69161;SDS011;56269;51.738;21.652;2022-12-07T06:28:25;11.23;;;4.95;;
69161;SDS011;56269;51.738;21.652;2022-12-07T06:30:58;14.02;;;5.97;;
69161;SDS011;56269;51.738;21.652;2022-12-07T06:33:25;12.48;;;6.18;;
69161;SDS011;56269;51.738;21.652;2022-12-07T06:35:52;11.60;;;5.43;;
69161;SDS011;56269;51.738;21.652;2022-12-07T06:38:18;14.18;;;5.95;;
69161;SDS011;56269;51.738;21.652;2022-12-07T06:40:44;10.88;;;4.65;;
69161;SDS011;56269;51.738;21.652;2022-12-07T06:43:11;10.70;;;4.85;;
69161;SDS011;56269;51.738;21.652;2022-12-07T06:45:37;11.65;;;5.18;;
69161;SDS011;56269;51.738;21.652;2022-12-07T06:48:03;10.60;;;4.57;;
69161;SDS011;56269;51.738;21.652;2022-12-07T06:50:29;11.00;;;4.80;;
69161;SDS011;56269;51.738;21.652;2022-12-07T06:52:55;9.10;;;4.28;;
69161;SDS011;56269;51.738;21.652;2022-12-07T06:55:21;15.30;;;5.30;;
69161;SDS011;56269;51.738;21.652;2022-12-07T06:57:48;11.03;;;4.63;;
69161;SDS011;56269;51.738;21.652;2022-12-07T07:00:14;7.68;;;3.78;;
69161;SDS011;56269;51.738;21.652;2022-12-07T07:02:41;13.35;;;5.57;;
69161;SDS011;56269;51.738;21.652;2022-12-07T07:05:07;8.73;;;3.83;;
69161;SDS011;56269;51.738;21.652;2022-12-07T07:07:33;11.25;;;5.03;;
69161;SDS011;56269;51.738;21.652;2022-12-07T07:09:59;9.83;;;4.10;;
69161;SDS011;56269;51.738;21.652;2022-12-07T07:12:25;12.95;;;4.80;;
69161;SDS011;56269;51.738;21.652;2022-12-07T07:14:51;10.20;;;3.88;;
69161;SDS011;56269;51.738;21.652;2022-12-07T07:17:17;12.00;;;5.20;;
69161;SDS011;56269;51.738;21.652;2022-12-07T07:19:43;11.20;;;4.20;;
69161;SDS011;56269;51.738;21.652;2022-12-07T07:22:10;10.00;;;4.18;;
69161;SDS011;56269;51.738;21.652;2022-12-07T07:24:36;15.35;;;5.47;;
69161;SDS011;56269;51.738;21.652;2022-12-07T07:27:03;12.15;;;5.35;;
69161;SDS011;56269;51.738;21.652;2022-12-07T07:29:28;11.80;;;5.20;;
69161;SDS011;56269;51.738;21.652;2022-12-07T07:31:55;14.68;;;5.75;;
69161;SDS011;56269;51.738;21.652;2022-12-07T07:34:21;9.40;;;4.07;;
69161;SDS011;56269;51.738;21.652;2022-12-07T07:36:47;11.68;;;4.50;;
69161;SDS011;56269;51.738;21.652;2022-12-07T07:39:13;11.93;;;5.00;;
69161;SDS011;56269;51.738;21.652;2022-12-07T07:41:39;13.75;;;5.47;;
69161;SDS011;56269;51.738;21.652;2022-12-07T07:44:06;8.77;;;3.58;;
69161;SDS011;56269;51.738;21.652;2022-12-07T07:46:32;13.75;;;5.70;;
69161;SDS011;56269;51.738;21.652;2022-12-07T07:48:58;11.10;;;5.05;;
69161;SDS011;56269;51.738;21.652;2022-12-07T07:51:25;11.90;;;4.87;;
69161;SDS011;56269;51.738;21.652;2022-12-07T07:53:51;12.13;;;4.85;;
69161;SDS011;56269;51.738;21.652;2022-12-07T07:56:17;9.20;;;4.05;;
69161;SDS011;56269;51.738;21.652;2022-12-07T07:58:43;15.40;;;5.95;;
69161;SDS011;56269;51.738;21.652;2022-12-07T08:01:10;15.65;;;5.43;;
69161;SDS011;56269;51.738;21.652;2022-12-07T08:03:36;11.40;;;4.83;;
69161;SDS011;56269;51.738;21.652;2022-12-07T08:06:03;9.73;;;4.20;;
69161;SDS011;56269;51.738;21.652;2022-12-07T08:08:29;10.50;;;4.35;;
69161;SDS011;56269;51.738;21.652;2022-12-07T08:10:55;7.32;;;3.67;;
69161;SDS011;56269;51.738;21.652;2022-12-07T08:13:21;11.18;;;4.32;;
69161;SDS011;56269;51.738;21.652;2022-12-07T08:15:48;8.40;;;3.80;;
69161;SDS011;56269;51.738;21.652;2022-12-07T08:18:15;9.68;;;4.57;;
69161;SDS011;56269;51.738;21.652;2022-12-07T08:20:41;13.77;;;5.45;;
69161;SDS011;56269;51.738;21.652;2022-12-07T08:23:08;9.40;;;4.28;;
69161;SDS011;56269;51.738;21.652;2022-12-07T08:25:36;7.93;;;3.15;;
69161;SDS011;56269;51.738;21.652;2022-12-07T08:28:02;9.10;;;3.50;;
69161;SDS011;56269;51.738;21.652;2022-12-07T08:30:29;14.27;;;5.15;;
69161;SDS011;56269;51.738;21.652;2022-12-07T08:32:55;10.25;;;4.68;;
69161;SDS011;56269;51.738;21.652;2022-12-07T08:35:22;11.13;;;5.10;;
69161;SDS011;56269;51.738;21.652;2022-12-07T08:37:49;8.15;;;3.65;;
69161;SDS011;56269;51.738;21.652;2022-12-07T08:40:15;10.37;;;4.63;;
69161;SDS011;56269;51.738;21.652;2022-12-07T08:42:50;11.95;;;4.53;;
69161;SDS011;56269;51.738;21.652;2022-12-07T08:45:18;9.38;;;4.03;;
69161;SDS011;56269;51.738;21.652;2022-12-07T08:47:55;10.27;;;4.00;;
69161;SDS011;56269;51.738;21.652;2022-12-07T08:50:30;8.73;;;3.47;;
69161;SDS011;56269;51.738;21.652;2022-12-07T08:52:58;7.70;;;3.13;;
69161;SDS011;56269;51.738;21.652;2022-12-07T08:55:25;9.57;;;4.55;;
69161;SDS011;56269;51.738;21.652;2022-12-07T08:57:54;13.88;;;5.68;;
69161;SDS011;56269;51.738;21.652;2022-12-07T09:00:21;11.65;;;4.82;;
69161;SDS011;56269;51.738;21.652;2022-12-07T09:02:47;10.57;;;3.58;;
69161;SDS011;56269;51.738;21.652;2022-12-07T09:05:14;11.93;;;4.60;;
69161;SDS011;56269;51.738;21.652;2022-12-07T09:07:40;9.90;;;4.55;;
69161;SDS011;56269;51.738;21.652;2022-12-07T09:10:09;13.70;;;5.75;;
69161;SDS011;56269;51.738;21.652;2022-12-07T09:12:35;9.48;;;3.97;;
69161;SDS011;56269;51.738;21.652;2022-12-07T09:15:02;10.43;;;3.95;;
69161;SDS011;56269;51.738;21.652;2022-12-07T09:17:31;10.90;;;4.63;;
69161;SDS011;56269;51.738;21.652;2022-12-07T09:19:59;12.18;;;4.25;;
69161;SDS011;56269;51.738;21.652;2022-12-07T09:22:29;11.43;;;4.20;;
69161;SDS011;56269;51.738;21.652;2022-12-07T09:24:59;10.38;;;4.53;;
69161;SDS011;56269;51.738;21.652;2022-12-07T09:27:26;15.60;;;5.70;;
69161;SDS011;56269;51.738;21.652;2022-12-07T09:29:53;17.50;;;6.90;;
69161;SDS011;56269;51.738;21.652;2022-12-07T09:32:19;9.52;;;4.85;;
69161;SDS011;56269;51.738;21.652;2022-12-07T09:34:46;13.15;;;5.43;;
69161;SDS011;56269;51.738;21.652;2022-12-07T09:37:12;8.57;;;3.22;;
69161;SDS011;56269;51.738;21.652;2022-12-07T09:39:39;8.60;;;3.83;;
69161;SDS011;56269;51.738;21.652;2022-12-07T09:42:06;8.33;;;3.70;;
69161;SDS011;56269;51.738;21.652;2022-12-07T09:44:33;6.85;;;3.33;;
69161;SDS011;56269;51.738;21.652;2022-12-07T09:47:01;10.30;;;4.03;;
69161;SDS011;56269;51.738;21.652;2022-12-07T09:49:30;9.50;;;4.32;;
69161;SDS011;56269;51.738;21.652;2022-12-07T09:54:48;9.50;;;4.00;;
69161;SDS011;56269;51.738;21.652;2022-12-07T09:57:16;13.75;;;5.10;;
69161;SDS011;56269;51.738;21.652;2022-12-07T09:59:42;13.25;;;5.43;;
69161;SDS011;56269;51.738;21.652;2022-12-07T10:02:52;11.73;;;5.07;;
69161;SDS011;56269;51.738;21.652;2022-12-07T10:05:31;16.35;;;6.28;;
69161;SDS011;56269;51.738;21.652;2022-12-07T10:08:02;10.70;;;2.87;;
69161;SDS011;56269;51.738;21.652;2022-12-07T10:10:30;11.63;;;4.65;;
69161;SDS011;56269;51.738;21.652;2022-12-07T10:13:00;9.60;;;4.68;;
69161;SDS011;56269;51.738;21.652;2022-12-07T10:15:45;11.13;;;4.35;;
69161;SDS011;56269;51.738;21.652;2022-12-07T10:18:20;12.38;;;5.40;;
69161;SDS011;56269;51.738;21.652;2022-12-07T10:21:02;11.23;;;5.17;;
69161;SDS011;56269;51.738;21.652;2022-12-07T10:23:29;13.68;;;6.13;;
69161;SDS011;56269;51.738;21.652;2022-12-07T10:25:55;10.27;;;4.68;;
69161;SDS011;56269;51.738;21.652;2022-12-07T10:28:22;11.52;;;4.60;;
69161;SDS011;56269;51.738;21.652;2022-12-07T10:30:56;13.65;;;5.82;;
69161;SDS011;56269;51.738;21.652;2022-12-07T10:33:34;13.80;;;5.70;;
69161;SDS011;56269;51.738;21.652;2022-12-07T10:36:22;10.93;;;5.10;;
69161;SDS011;56269;51.738;21.652;2022-12-07T10:41:26;11.70;;;5.05;;
69161;SDS011;56269;51.738;21.652;2022-12-07T10:43:54;9.45;;;4.20;;
69161;SDS011;56269;51.738;21.652;2022-12-07T10:46:32;12.27;;;5.47;;
69161;SDS011;56269;51.738;21.652;2022-12-07T10:52:14;10.85;;;4.25;;
69161;SDS011;56269;51.738;21.652;2022-12-07T11:00:42;14.87;;;5.63;;
69161;SDS011;56269;51.738;21.652;2022-12-07T11:03:25;13.38;;;4.68;;
69161;SDS011;56269;51.738;21.652;2022-12-07T11:14:55;14.97;;;5.47;;
69161;SDS011;56269;51.738;21.652;2022-12-07T11:23:34;13.13;;;4.65;;
69161;SDS011;56269;51.738;21.652;2022-12-07T11:32:17;11.43;;;4.65;;
69161;SDS011;56269;51.738;21.652;2022-12-07T11:37:36;11.05;;;5.22;;
69161;SDS011;56269;51.738;21.652;2022-12-07T11:43:01;13.23;;;5.17;;
69161;SDS011;56269;51.738;21.652;2022-12-07T11:45:42;10.70;;;4.10;;
69161;SDS011;56269;51.738;21.652;2022-12-07T11:48:15;9.43;;;4.47;;
69161;SDS011;56269;51.738;21.652;2022-12-07T11:50:51;9.15;;;4.63;;
69161;SDS011;56269;51.738;21.652;2022-12-07T11:53:26;11.05;;;4.90;;
69161;SDS011;56269;51.738;21.652;2022-12-07T12:01:53;16.40;;;6.32;;
69161;SDS011;56269;51.738;21.652;2022-12-07T12:04:34;12.85;;;5.43;;
69161;SDS011;56269;51.738;21.652;2022-12-07T12:07:23;9.65;;;4.10;;
69161;SDS011;56269;51.738;21.652;2022-12-07T12:10:03;8.07;;;3.60;;
69161;SDS011;56269;51.738;21.652;2022-12-07T12:20:47;7.72;;;3.47;;
69161;SDS011;56269;51.738;21.652;2022-12-07T12:23:19;9.87;;;4.00;;
69161;SDS011;56269;51.738;21.652;2022-12-07T12:26:03;12.20;;;4.88;;
69161;SDS011;56269;51.738;21.652;2022-12-07T12:28:35;11.35;;;4.53;;
69161;SDS011;56269;51.738;21.652;2022-12-07T12:31:07;9.60;;;4.38;;
69161;SDS011;56269;51.738;21.652;2022-12-07T12:33:34;10.52;;;4.95;;
69161;SDS011;56269;51.738;21.652;2022-12-07T12:38:48;8.30;;;3.25;;
69161;SDS011;56269;51.738;21.652;2022-12-07T12:47:00;12.55;;;5.68;;
69161;SDS011;56269;51.738;21.652;2022-12-07T12:51:55;10.48;;;4.28;;
69161;SDS011;56269;51.738;21.652;2022-12-07T12:54:37;13.85;;;5.60;;
69161;SDS011;56269;51.738;21.652;2022-12-07T13:13:04;8.93;;;4.40;;
69161;SDS011;56269;51.738;21.652;2022-12-07T13:18:02;9.15;;;4.30;;
69161;SDS011;56269;51.738;21.652;2022-12-07T13:20:40;8.95;;;3.67;;
69161;SDS011;56269;51.738;21.652;2022-12-07T13:23:12;8.85;;;4.35;;
69161;SDS011;56269;51.738;21.652;2022-12-07T13:25:44;10.10;;;4.78;;
69161;SDS011;56269;51.738;21.652;2022-12-07T13:28:17;8.87;;;3.80;;
69161;SDS011;56269;51.738;21.652;2022-12-07T13:30:46;7.75;;;3.67;;
69161;SDS011;56269;51.738;21.652;2022-12-07T13:33:35;9.68;;;4.40;;
69161;SDS011;56269;51.738;21.652;2022-12-07T13:36:01;9.05;;;3.58;;
69161;SDS011;56269;51.738;21.652;2022-12-07T13:38:29;8.63;;;3.90;;
69161;SDS011;56269;51.738;21.652;2022-12-07T13:40:59;8.77;;;3.67;;
69161;SDS011;56269;51.738;21.652;2022-12-07T13:46:58;10.00;;;4.72;;
69161;SDS011;56269;51.738;21.652;2022-12-07T13:49:36;8.57;;;4.03;;
69161;SDS011;56269;51.738;21.652;2022-12-07T13:52:24;8.80;;;4.55;;
69161;SDS011;56269;51.738;21.652;2022-12-07T13:54:59;10.23;;;4.80;;
69161;SDS011;56269;51.738;21.652;2022-12-07T13:57:33;10.20;;;4.63;;
69161;SDS011;56269;51.738;21.652;2022-12-07T14:00:05;10.95;;;4.75;;
69161;SDS011;56269;51.738;21.652;2022-12-07T14:02:54;10.50;;;4.57;;
69161;SDS011;56269;51.738;21.652;2022-12-07T14:05:31;12.93;;;5.90;;
69161;SDS011;56269;51.738;21.652;2022-12-07T14:08:02;7.67;;;3.63;;
69161;SDS011;56269;51.738;21.652;2022-12-07T14:10:31;9.07;;;3.65;;
69161;SDS011;56269;51.738;21.652;2022-12-07T14:16:14;11.70;;;5.03;;
69161;SDS011;56269;51.738;21.652;2022-12-07T14:18:54;13.10;;;6.38;;
69161;SDS011;56269;51.738;21.652;2022-12-07T14:21:23;10.43;;;4.47;;
69161;SDS011;56269;51.738;21.652;2022-12-07T14:26:47;13.85;;;5.70;;
69161;SDS011;56269;51.738;21.652;2022-12-07T14:29:21;11.45;;;5.32;;
69161;SDS011;56269;51.738;21.652;2022-12-07T14:31:57;10.70;;;4.63;;
69161;SDS011;56269;51.738;21.652;2022-12-07T14:34:30;11.03;;;4.97;;
69161;SDS011;56269;51.738;21.652;2022-12-07T14:36:56;13.88;;;5.97;;
69161;SDS011;56269;51.738;21.652;2022-12-07T14:39:22;13.40;;;5.78;;
69161;SDS011;56269;51.738;21.652;2022-12-07T14:41:49;12.52;;;5.28;;
69161;SDS011;56269;51.738;21.652;2022-12-07T14:44:21;11.05;;;4.53;;
69161;SDS011;56269;51.738;21.652;2022-12-07T14:46:49;12.60;;;5.50;;
69161;SDS011;56269;51.738;21.652;2022-12-07T14:49:16;10.77;;;5.50;;
69161;SDS011;56269;51.738;21.652;2022-12-07T14:51:43;9.35;;;4.40;;
69161;SDS011;56269;51.738;21.652;2022-12-07T14:54:18;13.75;;;5.95;;
69161;SDS011;56269;51.738;21.652;2022-12-07T14:56:46;14.48;;;6.38;;
69161;SDS011;56269;51.738;21.652;2022-12-07T14:59:16;12.57;;;5.33;;
69161;SDS011;56269;51.738;21.652;2022-12-07T15:01:44;11.48;;;4.93;;
69161;SDS011;56269;51.738;21.652;2022-12-07T15:04:10;12.13;;;5.43;;
69161;SDS011;56269;51.738;21.652;2022-12-07T15:06:37;17.40;;;6.70;;
69161;SDS011;56269;51.738;21.652;2022-12-07T15:09:03;12.55;;;5.03;;
69161;SDS011;56269;51.738;21.652;2022-12-07T15:11:30;13.53;;;5.03;;
69161;SDS011;56269;51.738;21.652;2022-12-07T15:13:56;14.55;;;6.30;;
69161;SDS011;56269;51.738;21.652;2022-12-07T15:16:35;13.75;;;6.22;;
69161;SDS011;56269;51.738;21.652;2022-12-07T15:19:03;15.57;;;6.03;;
69161;SDS011;56269;51.738;21.652;2022-12-07T15:21:30;13.13;;;5.38;;
69161;SDS011;56269;51.738;21.652;2022-12-07T15:23:56;14.97;;;5.37;;
69161;SDS011;56269;51.738;21.652;2022-12-07T15:26:23;12.27;;;5.22;;
69161;SDS011;56269;51.738;21.652;2022-12-07T15:28:49;10.82;;;4.50;;
69161;SDS011;56269;51.738;21.652;2022-12-07T15:31:16;12.55;;;5.57;;
69161;SDS011;56269;51.738;21.652;2022-12-07T15:33:48;11.13;;;4.75;;
69161;SDS011;56269;51.738;21.652;2022-12-07T15:36:21;17.90;;;7.07;;
69161;SDS011;56269;51.738;21.652;2022-12-07T15:38:52;16.10;;;6.38;;
69161;SDS011;56269;51.738;21.652;2022-12-07T15:41:18;16.70;;;6.93;;
69161;SDS011;56269;51.738;21.652;2022-12-07T15:43:45;19.17;;;8.18;;
69161;SDS011;56269;51.738;21.652;2022-12-07T15:46:31;21.20;;;8.63;;
69161;SDS011;56269;51.738;21.652;2022-12-07T15:48:59;19.10;;;7.77;;
69161;SDS011;56269;51.738;21.652;2022-12-07T15:51:27;14.95;;;5.78;;
69161;SDS011;56269;51.738;21.652;2022-12-07T15:53:53;16.05;;;6.60;;
69161;SDS011;56269;51.738;21.652;2022-12-07T15:56:20;18.75;;;6.72;;
69161;SDS011;56269;51.738;21.652;2022-12-07T15:58:46;12.57;;;5.18;;
69161;SDS011;56269;51.738;21.652;2022-12-07T16:01:14;14.13;;;4.60;;
69161;SDS011;56269;51.738;21.652;2022-12-07T16:03:42;17.15;;;6.28;;
69161;SDS011;56269;51.738;21.652;2022-12-07T16:06:10;19.83;;;7.90;;
69161;SDS011;56269;51.738;21.652;2022-12-07T16:08:36;23.08;;;9.25;;
69161;SDS011;56269;51.738;21.652;2022-12-07T16:11:06;20.83;;;8.07;;
69161;SDS011;56269;51.738;21.652;2022-12-07T16:13:34;15.47;;;6.83;;
69161;SDS011;56269;51.738;21.652;2022-12-07T16:16:04;15.82;;;7.05;;
69161;SDS011;56269;51.738;21.652;2022-12-07T16:18:37;19.20;;;7.75;;
69161;SDS011;56269;51.738;21.652;2022-12-07T16:21:03;16.88;;;7.18;;
69161;SDS011;56269;51.738;21.652;2022-12-07T16:23:30;17.85;;;7.15;;
69161;SDS011;56269;51.738;21.652;2022-12-07T16:26:07;19.33;;;7.67;;
69161;SDS011;56269;51.738;21.652;2022-12-07T16:28:34;15.57;;;7.18;;
69161;SDS011;56269;51.738;21.652;2022-12-07T16:31:06;24.95;;;9.48;;
69161;SDS011;56269;51.738;21.652;2022-12-07T16:33:37;23.65;;;8.48;;
69161;SDS011;56269;51.738;21.652;2022-12-07T16:36:05;22.17;;;8.57;;
69161;SDS011;56269;51.738;21.652;2022-12-07T16:38:33;17.97;;;8.00;;
69161;SDS011;56269;51.738;21.652;2022-12-07T16:41:01;15.05;;;6.32;;